METAR Data

Data at: 1222 UTC 24 May 2022

METAR for:KBID (Block Island Arpt, RI, US)
Text:KBID 241156Z AUTO 05010G20KT 10SM CLR 13/07 A3031 RMK AO2 SLP264 T01280067 10128 20122 53014
Temperature: 12.8°C ( 55°F)
Dewpoint: 6.7°C ( 44°F) [RH = 66%]
Pressure (altimeter):30.31 inches Hg (1026.5 mb) [Sea level pressure: 1026.4 mb]
Winds:from the NE (50 degrees) at 12 MPH (10 knots; 5.1 m/s) gusting to 23 MPH (20 knots; 10.3 m/s)
Visibility:10 or more sm (16+ km)
Ceiling:at least 12,000 feet AGL
Clouds:sky clear below 12,000 feet AGL
QC Flag:automated observation with no human augmentation